ADDS METAR Data INFO
IDs: Format: Raw Decoded Include TAF

Data at: 0706 UTC 19 Oct 2017

KJFK 190651Z 23006KT 10SM CLR 12/11 A3028 RMK AO2 SLP252 T01220111
KJFK 190551Z 24005KT 10SM CLR 13/11 A3028 RMK AO2 SLP254 T01280106 10172 20128 58006
KJFK 190451Z 24006KT 10SM CLR 13/11 A3029 RMK AO2 SLP257 T01330106 402170100
KJFK 190351Z 22006KT 10SM CLR 14/11 A3029 RMK AO2 SLP258 T01440111
KJFK 190251Z 23007KT 10SM CLR 16/11 A3030 RMK AO2 SLP260 T01560111 50004
KJFK 190151Z 22010KT 10SM CLR 17/12 A3030 RMK AO2 SLP262 T01670117
KJFK 190051Z 19008KT 10SM CLR 16/14 A3030 RMK AO2 SLP259 T01610139
KJFK 182351Z 19010KT 10SM CLR 17/14 A3029 RMK AO2 SLP256 T01670139 10217 20167 53005
KJFK 182251Z 19011KT 10SM CLR 17/13 A3028 RMK AO2 SLP253 T01720128
KJFK 182151Z 19012KT 10SM CLR 18/12 A3027 RMK AO2 SLP250 T01780122
KJFK 182051Z 18011KT 10SM CLR 18/12 A3027 RMK AO2 SLP250 T01830117 56006
KJFK 181951Z 21011KT 10SM CLR 21/09 A3027 RMK AO2 SLP251 T02060094
KJFK 181851Z 23008KT 10SM CLR 21/09 A3028 RMK AO2 SLP253 T02110089
KJFK 181751Z 23008KT 10SM CLR 21/08 A3029 RMK AO2 SLP256 T02060078 10211 20106 58014
KJFK 181651Z 24008KT 10SM FEW250 20/07 A3031 RMK AO2 SLP265 T02000067
KJFK 181551Z 32006KT 10SM FEW250 19/06 A3033 RMK AO2 SLP270 T01940056
KJFK 181451Z VRB04KT 10SM FEW250 17/05 A3033 RMK AO2 SLP270 T01720050 50000
KJFK 181351Z 29007KT 10SM FEW250 15/05 A3033 RMK AO2 SLP271 T01500050
KJFK 181251Z 25008KT 10SM FEW250 12/05 A3034 RMK AO2 SLP274 T01220050
KJFK 181151Z 25009KT 10SM FEW250 11/05 A3033 RMK AO2 SLP270 T01060050 10117 20100 51013
KJFK 181051Z 25009KT 10SM CLR 10/05 A3032 RMK AO2 SLP267 T01000050
KJFK 180951Z 26011KT 10SM CLR 11/05 A3031 RMK AO2 SLP262 T01060050
KJFK 180851Z 23009KT 10SM CLR 11/05 A3029 RMK AO2 SLP257 T01060050 55003
KJFK 180751Z 24010KT 10SM CLR 11/05 A3028 RMK AO2 SLP255 T01110050
KJFK 180651Z 26012KT 10SM CLR 11/04 A3030 RMK AO2 SLP260 T01110044
KJFK 180551Z 26014KT 10SM CLR 12/04 A3030 RMK AO2 SLP261 T01170044 10128 20117 56003
KJFK 180451Z 25012KT 10SM CLR 12/06 A3030 RMK AO2 SLP261 T01220056 401560056
KJFK 180351Z 24014KT 10SM CLR 13/05 A3030 RMK AO2 SLP261 T01280050
KJFK 180251Z 23014KT 10SM CLR 13/05 A3031 RMK AO2 SLP264 T01280050 53007
KJFK 180151Z 22011KT 10SM CLR 12/07 A3030 RMK AO2 SLP261 T01220067
KJFK 180051Z 21009KT 10SM CLR 12/06 A3029 RMK AO2 SLP258 T01220061
KJFK 172351Z 19012KT 10SM CLR 12/06 A3029 RMK AO2 SLP257 T01220056 10156 20111 53006
KJFK 172251Z 19009KT 10SM FEW250 12/04 A3028 RMK AO2 SLP252 T01170039
KJFK 172151Z 18008KT 10SM FEW250 12/02 A3027 RMK AO2 SLP250 T01220022
KJFK 172051Z 19008KT 10SM FEW250 13/02 A3027 RMK AO2 SLP250 T01330022 57010
KJFK 171951Z 21008KT 10SM FEW250 14/02 A3028 RMK AO2 SLP255 T01440017